createdAt,value
2018-02-07T00:00:09.067Z,36.85
2018-02-07T00:02:37.759Z,40.67
2018-02-07T00:05:05.774Z,42.92
2018-02-07T00:07:34.309Z,40.28
2018-02-07T00:10:03.240Z,40.47
2018-02-07T00:12:31.185Z,38.95
2018-02-07T00:14:59.789Z,36.90
2018-02-07T00:17:28.996Z,39.30
2018-02-07T00:19:57.701Z,41.45
2018-02-07T00:22:26.432Z,39.92
2018-02-07T00:24:54.380Z,41.63
2018-02-07T00:27:22.528Z,37.60
2018-02-07T00:29:50.708Z,41.97
2018-02-07T00:32:19.309Z,42.85
2018-02-07T00:34:47.200Z,43.30
2018-02-07T00:37:15.141Z,42.62
2018-02-07T00:39:43.244Z,43.22
2018-02-07T00:42:12.625Z,46.05
2018-02-07T00:44:40.507Z,42.45
2018-02-07T00:47:09.930Z,40.70
2018-02-07T00:49:38.564Z,40.40
2018-02-07T00:52:06.551Z,43.42
2018-02-07T00:54:35.309Z,45.17
2018-02-07T00:57:03.633Z,44.75
2018-02-07T00:59:31.539Z,41.53
2018-02-07T01:01:59.660Z,42.92
2018-02-07T01:04:27.603Z,49.58
2018-02-07T01:06:55.634Z,38.30
2018-02-07T01:09:24.661Z,43.65
2018-02-07T01:11:52.520Z,42.17
2018-02-07T01:14:20.431Z,40.90
2018-02-07T01:16:49.886Z,43.42
2018-02-07T01:19:18.566Z,42.67
2018-02-07T01:21:47.377Z,42.55
2018-02-07T01:24:15.494Z,40.78
2018-02-07T01:26:44.461Z,42.67
2018-02-07T01:29:12.530Z,44.95
2018-02-07T01:31:40.447Z,42.45
2018-02-07T01:34:09.057Z,45.33
2018-02-07T01:36:37.034Z,42.60
2018-02-07T01:39:05.789Z,47.10
2018-02-07T01:41:33.782Z,44.72
2018-02-07T01:44:01.700Z,42.50
2018-02-07T01:46:30.502Z,42.80
2018-02-07T01:48:59.227Z,43.92
2018-02-07T01:51:27.224Z,42.58
2018-02-07T01:53:55.888Z,41.40
2018-02-07T01:56:24.134Z,46.08
2018-02-07T01:58:52.874Z,46.85
2018-02-07T02:01:20.798Z,45.10
2018-02-07T02:03:48.671Z,44.60
2018-02-07T02:06:16.929Z,47.20
2018-02-07T02:08:45.746Z,42.90
2018-02-07T02:11:13.885Z,40.88
2018-02-07T02:13:41.699Z,42.70
2018-02-07T02:16:09.627Z,43.75
2018-02-07T02:18:37.621Z,48.33
2018-02-07T02:21:05.494Z,41.55
2018-02-07T02:23:33.488Z,46.50
2018-02-07T02:26:01.521Z,49.28
2018-02-07T02:28:29.735Z,41.78
2018-02-07T02:30:58.109Z,43.60
2018-02-07T02:33:26.040Z,51.90
2018-02-07T02:36:03.026Z,50.05
2018-02-07T02:38:31.658Z,47.53
2018-02-07T02:41:00.295Z,50.05
2018-02-07T02:43:28.300Z,49.80
2018-02-07T02:45:56.474Z,51.47
2018-02-07T02:48:24.442Z,50.83
2018-02-07T02:50:53.219Z,48.92
2018-02-07T02:53:21.075Z,46.83
2018-02-07T02:55:49.168Z,47.13
2018-02-07T02:58:17.522Z,46.33
2018-02-07T03:00:45.574Z,50.90
2018-02-07T03:03:13.561Z,49.00
2018-02-07T03:05:41.487Z,45.45
2018-02-07T03:08:09.555Z,52.20
2018-02-07T03:10:37.594Z,47.05
2018-02-07T03:13:06.434Z,48.80
2018-02-07T03:15:34.376Z,47.58
2018-02-07T03:18:02.495Z,46.42
2018-02-07T03:20:31.138Z,55.05
2018-02-07T03:22:59.068Z,48.03
2018-02-07T03:25:27.023Z,50.80
2018-02-07T03:27:54.985Z,50.33
2018-02-07T03:30:23.037Z,51.35
2018-02-07T03:32:52.129Z,47.22
2018-02-07T03:35:20.215Z,51.50
2018-02-07T03:37:48.147Z,47.25
2018-02-07T03:40:17.643Z,46.75
2018-02-07T03:42:45.610Z,49.67
2018-02-07T03:45:14.254Z,54.15
2018-02-07T03:47:42.193Z,51.25
2018-02-07T03:50:10.216Z,49.53
2018-02-07T03:52:38.872Z,52.38
2018-02-07T03:55:06.917Z,50.08
2018-02-07T03:57:34.721Z,50.90
2018-02-07T04:03:02.245Z,50.70
2018-02-07T04:05:30.400Z,51.22
2018-02-07T04:07:58.277Z,53.75
2018-02-07T04:10:26.118Z,47.38
2018-02-07T04:12:54.823Z,49.78
2018-02-07T04:15:22.716Z,49.00
2018-02-07T04:17:50.659Z,52.72
2018-02-07T04:20:18.709Z,45.42
2018-02-07T04:22:47.491Z,47.25
2018-02-07T04:25:15.410Z,49.13
2018-02-07T04:27:43.360Z,49.55
2018-02-07T04:30:11.479Z,43.65
2018-02-07T04:32:39.463Z,49.53
2018-02-07T04:35:08.234Z,44.65
2018-02-07T04:37:36.364Z,48.33
2018-02-07T04:40:03.988Z,50.60
2018-02-07T04:42:32.738Z,48.70
2018-02-07T04:45:01.387Z,42.45
2018-02-07T04:47:29.327Z,47.62
2018-02-07T04:49:58.005Z,47.20
2018-02-07T04:52:26.644Z,49.15
2018-02-07T04:54:54.573Z,45.40
2018-02-07T04:57:23.426Z,43.83
2018-02-07T04:59:51.633Z,47.05
2018-02-07T05:02:20.394Z,48.97
2018-02-07T05:04:48.440Z,52.83
2018-02-07T05:07:16.482Z,51.60
2018-02-07T05:09:44.934Z,43.47
2018-02-07T05:12:13.555Z,49.22
2018-02-07T05:14:42.212Z,54.47
2018-02-07T05:17:11.050Z,44.90
2018-02-07T05:19:38.991Z,49.83
2018-02-07T05:22:06.967Z,47.75
2018-02-07T05:24:34.898Z,50.47
2018-02-07T05:27:03.802Z,46.75
2018-02-07T05:29:39.172Z,47.97
2018-02-07T05:32:07.238Z,51.25
2018-02-07T05:34:35.111Z,50.70
2018-02-07T05:37:03.135Z,49.13
2018-02-07T05:39:32.036Z,50.58
2018-02-07T05:42:00.720Z,51.10
2018-02-07T05:44:29.788Z,50.25
2018-02-07T05:46:58.258Z,51.58
2018-02-07T05:49:26.215Z,48.95
2018-02-07T05:51:54.206Z,53.60
2018-02-07T05:54:22.423Z,49.55
2018-02-07T05:56:50.362Z,56.28
2018-02-07T05:59:19.080Z,48.00
2018-02-07T06:01:47.242Z,48.20
2018-02-07T06:04:15.896Z,53.53
2018-02-07T06:06:43.822Z,51.65
2018-02-07T06:09:11.890Z,52.15
2018-02-07T06:11:39.801Z,51.22
2018-02-07T06:14:07.959Z,55.85
2018-02-07T06:16:35.938Z,49.50
2018-02-07T06:19:03.945Z,50.42
2018-02-07T06:21:32.230Z,52.25
2018-02-07T06:24:00.126Z,50.90
2018-02-07T06:26:28.318Z,50.58
2018-02-07T06:28:56.417Z,53.33
2018-02-07T06:31:25.244Z,50.20
2018-02-07T06:33:53.195Z,55.00
2018-02-07T06:36:21.417Z,46.92
2018-02-07T06:38:49.954Z,51.60
2018-02-07T06:41:18.052Z,51.35
2018-02-07T06:43:45.967Z,47.03
2018-02-07T06:46:14.657Z,51.72
2018-02-07T06:48:43.498Z,51.05
2018-02-07T06:51:11.434Z,48.95
2018-02-07T06:53:39.378Z,50.83
2018-02-07T06:56:08.222Z,50.50
2018-02-07T06:58:36.219Z,48.33
2018-02-07T07:01:04.966Z,58.45
2018-02-07T07:03:33.044Z,60.53
2018-02-07T07:06:01.564Z,65.80
2018-02-07T07:08:30.326Z,65.72
2018-02-07T07:10:58.475Z,60.05
2018-02-07T07:13:26.446Z,54.88
2018-02-07T07:15:54.580Z,51.40
2018-02-07T07:18:23.201Z,50.55
2018-02-07T07:20:51.148Z,47.00
2018-02-07T07:23:19.363Z,53.35
2018-02-07T07:25:47.258Z,50.15
2018-02-07T07:28:15.998Z,50.08
2018-02-07T07:30:44.066Z,55.90
2018-02-07T07:33:12.002Z,54.10
2018-02-07T07:35:40.741Z,51.20
2018-02-07T07:38:08.787Z,54.58
2018-02-07T07:40:36.693Z,50.50
2018-02-07T07:43:04.710Z,52.15
2018-02-07T07:45:32.620Z,55.75
2018-02-07T07:48:00.565Z,49.35
2018-02-07T07:50:28.479Z,52.13
2018-02-07T07:52:57.187Z,51.10
2018-02-07T07:55:25.101Z,51.90
2018-02-07T07:57:53.118Z,54.95
2018-02-07T08:00:21.738Z,49.03
2018-02-07T08:02:49.622Z,56.17
2018-02-07T08:05:17.737Z,56.25
2018-02-07T08:07:48.746Z,46.90
2018-02-07T08:10:16.750Z,53.67
2018-02-07T08:12:45.424Z,48.65
2018-02-07T08:15:14.189Z,48.63
2018-02-07T08:17:42.245Z,46.40
2018-02-07T08:20:10.272Z,45.17
2018-02-07T08:22:38.491Z,47.20
2018-02-07T08:25:06.596Z,45.33
2018-02-07T08:27:35.250Z,44.08
2018-02-07T08:30:03.276Z,48.70
2018-02-07T08:32:32.782Z,45.88
2018-02-07T08:35:00.667Z,44.60
2018-02-07T08:37:28.709Z,41.80
2018-02-07T08:39:56.815Z,55.30
2018-02-07T08:42:24.853Z,50.00
2018-02-07T08:44:52.934Z,48.20
2018-02-07T08:47:20.984Z,48.30
2018-02-07T08:49:49.895Z,46.35
2018-02-07T08:52:17.923Z,45.67
2018-02-07T08:54:45.877Z,47.83
2018-02-07T08:57:13.921Z,49.05
2018-02-07T08:59:42.043Z,50.63
2018-02-07T09:02:10.805Z,52.67
2018-02-07T09:04:38.750Z,48.13
2018-02-07T09:07:06.952Z,50.92
2018-02-07T09:09:35.608Z,49.03
2018-02-07T09:12:03.627Z,50.00
2018-02-07T09:14:32.710Z,51.90
2018-02-07T09:17:00.742Z,49.00
2018-02-07T09:19:28.721Z,52.38
2018-02-07T09:21:56.720Z,53.10
2018-02-07T09:24:25.414Z,52.47
2018-02-07T09:26:54.304Z,47.80
2018-02-07T09:29:23.244Z,51.67
2018-02-07T09:31:51.446Z,50.72
2018-02-07T09:34:19.693Z,53.33
2018-02-07T09:36:47.753Z,52.38
2018-02-07T09:39:15.696Z,50.53
2018-02-07T09:41:44.665Z,50.53
2018-02-07T09:44:13.648Z,49.03
2018-02-07T09:46:41.740Z,51.92
2018-02-07T09:49:10.472Z,55.55
2018-02-07T09:51:38.466Z,53.97
2018-02-07T09:54:06.428Z,54.83
2018-02-07T09:56:34.492Z,58.38
2018-02-07T09:59:02.473Z,54.35
2018-02-07T10:01:30.413Z,55.50
2018-02-07T10:03:58.360Z,52.28
2018-02-07T10:06:26.357Z,57.75
2018-02-07T10:08:54.202Z,53.17
2018-02-07T10:11:22.147Z,54.53
2018-02-07T10:13:50.823Z,58.75
2018-02-07T10:16:19.598Z,54.30
2018-02-07T10:18:47.616Z,56.47
2018-02-07T10:21:15.524Z,59.63
2018-02-07T10:23:43.596Z,59.97
2018-02-07T10:26:11.955Z,58.87
2018-02-07T10:28:42.251Z,56.30
2018-02-07T10:31:10.137Z,52.95
2018-02-07T10:33:38.190Z,57.38
2018-02-07T10:36:06.155Z,60.72
2018-02-07T10:38:34.229Z,54.88
2018-02-07T10:41:02.324Z,61.15
2018-02-07T10:43:30.212Z,50.45
2018-02-07T10:45:58.390Z,53.00
2018-02-07T10:48:26.823Z,57.50
2018-02-07T10:52:24.237Z,57.13
2018-02-07T10:54:52.782Z,54.95
2018-02-07T10:57:20.916Z,56.83
2018-02-07T10:59:48.903Z,59.10
2018-02-07T11:02:17.059Z,51.25
2018-02-07T11:04:45.192Z,56.80
2018-02-07T11:07:14.090Z,54.85
2018-02-07T11:09:42.244Z,53.60
2018-02-07T11:12:10.285Z,54.50
2018-02-07T11:14:38.477Z,57.08
2018-02-07T11:17:06.581Z,56.70
2018-02-07T11:19:34.536Z,55.27
2018-02-07T11:22:03.037Z,57.90
2018-02-07T11:24:32.454Z,55.10
2018-02-07T11:27:00.448Z,56.47
2018-02-07T11:29:28.418Z,68.03
2018-02-07T11:31:56.508Z,63.33
2018-02-07T11:34:24.529Z,63.00
2018-02-07T11:36:53.770Z,59.73
2018-02-07T11:39:22.177Z,55.23
2018-02-07T11:41:50.429Z,58.63
2018-02-07T11:44:18.887Z,54.27
2018-02-07T11:46:46.878Z,55.10
2018-02-07T11:49:14.962Z,55.73
2018-02-07T11:51:43.042Z,62.33
2018-02-07T11:54:11.436Z,55.27
2018-02-07T11:56:39.513Z,65.90
2018-02-07T11:59:07.533Z,58.57
2018-02-07T12:01:35.859Z,71.90
2018-02-07T12:04:04.031Z,57.37
2018-02-07T12:06:32.743Z,55.90
2018-02-07T12:09:00.686Z,66.97
2018-02-07T12:11:29.415Z,55.00
2018-02-07T12:13:57.682Z,59.03
2018-02-07T12:16:25.759Z,59.10
2018-02-07T12:18:53.812Z,55.43
2018-02-07T12:21:22.840Z,67.07
2018-02-07T12:23:51.057Z,62.10
2018-02-07T12:26:19.833Z,56.90
2018-02-07T12:28:48.006Z,52.90
2018-02-07T12:31:17.067Z,53.43
2018-02-07T12:33:45.165Z,51.10
2018-02-07T12:36:13.463Z,52.77
2018-02-07T12:38:42.286Z,56.83
2018-02-07T12:41:10.381Z,54.67
2018-02-07T12:43:38.486Z,50.10
2018-02-07T12:46:06.598Z,56.13
2018-02-07T12:48:40.143Z,60.93
2018-02-07T12:51:09.731Z,51.67
2018-02-07T12:53:38.056Z,53.33
2018-02-07T12:56:07.238Z,58.27
2018-02-07T12:58:36.290Z,55.50
2018-02-07T13:01:04.270Z,65.43
2018-02-07T13:03:32.231Z,49.03
2018-02-07T13:06:00.333Z,48.40
2018-02-07T13:08:28.599Z,52.10
2018-02-07T13:10:57.160Z,51.57
2018-02-07T13:13:25.943Z,52.43
2018-02-07T13:15:54.261Z,49.70
2018-02-07T13:18:23.107Z,52.60
2018-02-07T13:20:51.195Z,55.67
2018-02-07T13:23:19.258Z,52.10
2018-02-07T13:25:47.654Z,47.40
2018-02-07T13:28:15.917Z,49.93
2018-02-07T13:30:44.109Z,46.60
2018-02-07T13:33:12.339Z,49.53
2018-02-07T13:35:40.294Z,47.97
2018-02-07T13:38:08.469Z,49.97
2018-02-07T13:40:37.056Z,49.77
2018-02-07T13:43:05.332Z,46.37
2018-02-07T13:45:33.643Z,48.87
2018-02-07T13:48:01.621Z,53.93
2018-02-07T13:50:29.778Z,42.67
2018-02-07T13:52:58.152Z,41.87
2018-02-07T13:55:26.367Z,48.93
2018-02-07T13:57:55.523Z,47.77
2018-02-07T14:00:23.803Z,47.53
2018-02-07T14:02:51.797Z,47.00
2018-02-07T14:05:20.657Z,49.20
2018-02-07T14:07:48.681Z,48.07
2018-02-07T14:10:17.841Z,47.00
2018-02-07T14:12:45.893Z,50.13
2018-02-07T14:15:13.980Z,42.87
2018-02-07T14:17:42.853Z,46.23
2018-02-07T14:20:11.129Z,42.47
2018-02-07T14:22:39.644Z,45.67
2018-02-07T14:25:07.777Z,43.03
2018-02-07T14:27:36.318Z,34.47
2018-02-07T14:30:05.017Z,48.10
2018-02-07T14:32:33.072Z,45.07
2018-02-07T14:35:01.904Z,43.40
2018-02-07T14:37:30.054Z,43.00
2018-02-07T14:39:59.137Z,47.27
2018-02-07T14:42:27.248Z,44.17
2018-02-07T14:44:56.277Z,42.50
2018-02-07T14:47:24.415Z,44.50
2018-02-07T14:49:52.541Z,45.43
2018-02-07T14:52:20.660Z,43.60
2018-02-07T14:54:48.826Z,47.10
2018-02-07T14:57:16.873Z,47.70
2018-02-07T14:59:45.093Z,46.43
2018-02-07T15:02:13.202Z,62.03
2018-02-07T15:04:42.510Z,49.43
2018-02-07T15:07:11.746Z,52.33
2018-02-07T15:09:39.952Z,49.20
2018-02-07T15:12:08.020Z,47.03
2018-02-07T15:14:36.246Z,51.17
2018-02-07T15:17:05.200Z,48.58
2018-02-07T15:19:33.262Z,48.47
2018-02-07T15:22:01.604Z,48.28
2018-02-07T15:24:29.812Z,50.15
2018-02-07T15:26:58.171Z,51.65
2018-02-07T15:29:26.311Z,53.93
2018-02-07T15:31:54.381Z,51.58
2018-02-07T15:34:22.646Z,53.80
2018-02-07T15:36:50.709Z,51.87
2018-02-07T15:39:19.026Z,50.87
2018-02-07T15:41:50.998Z,51.90
2018-02-07T15:44:19.167Z,54.92
2018-02-07T15:46:47.992Z,51.27
2018-02-07T15:49:17.100Z,52.45
2018-02-07T15:51:46.583Z,53.72
2018-02-07T15:54:14.649Z,53.92
2018-02-07T15:56:42.771Z,51.73
2018-02-07T15:59:11.109Z,56.45
2018-02-07T16:01:39.358Z,53.22
2018-02-07T16:04:07.935Z,57.03
2018-02-07T16:06:36.080Z,53.45
2018-02-07T16:09:04.499Z,58.87
2018-02-07T16:11:32.751Z,66.07
2018-02-07T16:14:01.133Z,65.03
2018-02-07T16:16:29.386Z,53.10
2018-02-07T16:18:58.095Z,54.90
2018-02-07T16:21:26.278Z,52.55
2018-02-07T16:23:54.521Z,50.42
2018-02-07T16:26:23.995Z,53.00
2018-02-07T16:28:52.401Z,51.80
2018-02-07T16:31:20.564Z,54.50
2018-02-07T16:33:48.826Z,50.20
2018-02-07T16:36:17.176Z,54.83
2018-02-07T16:38:45.552Z,57.08
2018-02-07T16:41:13.704Z,51.90
2018-02-07T16:43:42.156Z,66.00
2018-02-07T16:46:10.668Z,52.20
2018-02-07T16:48:38.936Z,53.92
2018-02-07T16:51:07.491Z,57.22
2018-02-07T16:53:36.624Z,52.20
2018-02-07T16:56:05.561Z,52.70
2018-02-07T16:58:34.093Z,50.28
2018-02-07T17:01:02.273Z,79.90
2018-02-07T17:03:31.398Z,51.63
2018-02-07T17:06:01.456Z,53.13
2018-02-07T17:08:30.388Z,50.38
2018-02-07T17:10:59.351Z,48.95
2018-02-07T17:13:27.640Z,53.53
2018-02-07T17:15:56.259Z,51.05
2018-02-07T17:18:25.120Z,53.67
2018-02-07T17:20:54.219Z,49.92
2018-02-07T17:23:22.949Z,51.15
2018-02-07T17:25:51.294Z,52.95
2018-02-07T17:28:19.547Z,56.03
2018-02-07T17:30:47.695Z,53.60
2018-02-07T17:33:16.298Z,52.30
2018-02-07T17:35:44.876Z,52.00
2018-02-07T17:38:14.294Z,54.78
2018-02-07T17:40:42.628Z,56.30
2018-02-07T17:43:10.832Z,57.00
2018-02-07T17:45:39.020Z,58.25
2018-02-07T17:48:07.153Z,61.37
2018-02-07T17:50:35.532Z,61.60
2018-02-07T17:53:03.941Z,52.25
2018-02-07T17:55:32.624Z,58.63
2018-02-07T17:58:00.832Z,69.50
2018-02-07T18:00:29.927Z,58.78
2018-02-07T18:02:59.525Z,63.42
2018-02-07T18:05:28.180Z,58.15
2018-02-07T18:07:57.203Z,60.97
2018-02-07T18:10:26.412Z,63.08
2018-02-07T18:12:54.653Z,63.00
2018-02-07T18:15:22.868Z,60.35
2018-02-07T18:17:51.036Z,61.75
2018-02-07T18:20:20.260Z,63.17
2018-02-07T18:22:48.613Z,59.88
2018-02-07T18:25:17.874Z,62.80
2018-02-07T18:27:46.146Z,59.97
2018-02-07T18:30:14.255Z,61.25
2018-02-07T18:32:42.722Z,60.88
2018-02-07T18:35:10.868Z,55.15
2018-02-07T18:37:38.940Z,58.92
2018-02-07T18:40:07.087Z,58.45
2018-02-07T18:42:35.706Z,54.85
2018-02-07T18:45:03.983Z,61.20
2018-02-07T18:47:32.267Z,59.55
2018-02-07T18:50:01.457Z,72.97
2018-02-07T18:52:29.517Z,69.60
2018-02-07T18:54:57.912Z,66.37
2018-02-07T18:57:26.982Z,91.05
2018-02-07T18:59:55.486Z,55.47
2018-02-07T19:02:23.852Z,57.17
2018-02-07T19:04:53.138Z,59.25
2018-02-07T19:07:21.350Z,59.88
2018-02-07T19:09:50.322Z,60.47
2018-02-07T19:12:19.116Z,62.10
2018-02-07T19:14:48.204Z,64.45
2018-02-07T19:17:16.795Z,56.80
2018-02-07T19:19:45.119Z,59.05
2018-02-07T19:22:14.227Z,59.53
2018-02-07T19:24:43.158Z,55.97
2018-02-07T19:27:11.835Z,80.75
2018-02-07T19:29:40.297Z,64.78
2018-02-07T19:32:08.594Z,65.80
2018-02-07T19:34:37.117Z,62.75
2018-02-07T19:37:06.189Z,64.82
2018-02-07T19:39:35.153Z,60.10
2018-02-07T19:42:04.203Z,59.63
2018-02-07T19:44:32.405Z,60.12
2018-02-07T19:47:00.915Z,63.50
2018-02-07T19:49:29.906Z,59.63
2018-02-07T19:51:58.603Z,63.33
2018-02-07T19:54:28.087Z,63.83
2018-02-07T19:56:57.038Z,60.42
2018-02-07T19:59:25.398Z,58.63
2018-02-07T20:01:54.783Z,57.62
2018-02-07T20:04:23.984Z,59.83
2018-02-07T20:06:52.757Z,59.53
2018-02-07T20:09:21.949Z,62.25
2018-02-07T20:11:52.348Z,60.35
2018-02-07T20:14:20.849Z,63.53
2018-02-07T20:16:50.031Z,64.05
2018-02-07T20:19:19.463Z,64.15
2018-02-07T20:21:48.339Z,59.67
2018-02-07T20:24:17.664Z,67.35
2018-02-07T20:26:46.515Z,60.03
2018-02-07T20:29:14.701Z,60.35
2018-02-07T20:31:43.251Z,65.12
2018-02-07T20:34:11.580Z,67.10
2018-02-07T20:36:40.350Z,65.85
2018-02-07T20:39:08.847Z,75.70
2018-02-07T20:41:37.131Z,69.30
2018-02-07T20:44:05.413Z,66.15
2018-02-07T20:46:34.794Z,71.37
2018-02-07T20:49:06.471Z,58.60
2018-02-07T20:51:35.263Z,65.87
2018-02-07T20:54:06.179Z,57.47
2018-02-07T20:56:34.372Z,65.75
2018-02-07T20:59:02.943Z,61.30
2018-02-07T21:01:32.668Z,60.47
2018-02-07T21:04:01.362Z,62.72
2018-02-07T21:06:29.625Z,64.05
2018-02-07T21:08:58.256Z,66.60
2018-02-07T21:11:26.628Z,62.28
2018-02-07T21:13:55.043Z,60.95
2018-02-07T21:16:23.625Z,64.68
2018-02-07T21:18:52.058Z,63.85
2018-02-07T21:21:20.687Z,61.95
2018-02-07T21:23:51.391Z,62.15
2018-02-07T21:26:20.521Z,58.85
2018-02-07T21:28:49.104Z,68.12
2018-02-07T21:31:18.831Z,63.70
2018-02-07T21:33:48.010Z,66.18
2018-02-07T21:36:16.852Z,65.57
2018-02-07T21:38:46.807Z,65.60
2018-02-07T21:41:24.628Z,78.68
2018-02-07T21:43:55.212Z,65.35
2018-02-07T21:46:23.371Z,67.93
2018-02-07T21:48:52.455Z,62.47
2018-02-07T21:51:20.714Z,71.82
2018-02-07T21:53:50.024Z,61.15
2018-02-07T21:56:18.946Z,62.10
2018-02-07T21:58:47.824Z,67.07
2018-02-07T22:01:16.996Z,69.55
2018-02-07T22:03:45.445Z,66.47
2018-02-07T22:06:13.825Z,67.78
2018-02-07T22:08:41.999Z,70.45
2018-02-07T22:11:10.502Z,65.35
2018-02-07T22:13:39.689Z,60.70
2018-02-07T22:16:09.598Z,62.85
2018-02-07T22:18:37.851Z,56.90
2018-02-07T22:21:06.453Z,65.28
2018-02-07T22:23:35.908Z,68.07
2018-02-07T22:26:04.132Z,67.60
2018-02-07T22:28:33.008Z,73.05
2018-02-07T22:31:01.991Z,84.22
2018-02-07T22:33:30.346Z,71.45
2018-02-07T22:36:05.324Z,65.45
2018-02-07T22:38:33.399Z,64.97
2018-02-07T22:41:01.801Z,71.30
2018-02-07T22:43:30.096Z,68.55
2018-02-07T22:45:58.362Z,70.60
2018-02-07T22:48:26.638Z,69.97
2018-02-07T22:50:54.908Z,69.65
2018-02-07T22:53:23.082Z,71.00
2018-02-07T22:55:51.533Z,66.22
2018-02-07T22:58:20.560Z,65.43
2018-02-07T23:00:48.735Z,72.10
2018-02-07T23:03:16.814Z,72.95
2018-02-07T23:05:44.889Z,74.45
2018-02-07T23:08:13.015Z,70.78
2018-02-07T23:10:42.258Z,72.50
2018-02-07T23:13:11.109Z,65.93
2018-02-07T23:15:39.160Z,67.37
2018-02-07T23:18:07.390Z,67.60
2018-02-07T23:20:35.629Z,69.05
2018-02-07T23:23:04.432Z,68.53
2018-02-07T23:25:32.647Z,71.00
2018-02-07T23:28:01.071Z,71.70
2018-02-07T23:30:30.191Z,73.00
2018-02-07T23:32:58.233Z,79.32
2018-02-07T23:35:27.068Z,69.87
2018-02-07T23:37:55.424Z,70.32
2018-02-07T23:40:23.418Z,68.60
2018-02-07T23:42:52.689Z,74.68
2018-02-07T23:45:21.804Z,75.72
2018-02-07T23:47:49.994Z,77.43
2018-02-07T23:50:18.333Z,72.10
2018-02-07T23:52:46.272Z,83.72
2018-02-07T23:55:14.275Z,75.65
2018-02-07T23:57:42.550Z,66.12
